Date,TemperatureHighF,TemperatureAvgF,TemperatureLowF,DewpointHighF,DewpointAvgF,DewpointLowF,HumidityHigh,HumidityAvg,HumidityLow,PressureMaxIn,PressureMinIn,WindSpeedMaxMPH,WindSpeedAvgMPH,GustSpeedMaxMPH,PrecipitationSumIn
2013-1-1,27.9,15.6,11.1,23.8,15.2,11.1,100,99,85,29.44,29.41,8,0,8,0.00
2013-1-2,35.2,22.5,10.2,34.3,20.5,10.2,100,92,79,29.44,29.29,11,4,11,0.00
2013-1-3,43.3,28.6,21.0,39.1,27.0,21.0,100,94,79,29.59,29.38,8,1,8,0.00
2013-1-4,43.0,30.7,17.6,38.8,28.1,17.6,100,90,79,29.56,29.41,13,4,13,0.00
2013-1-5,42.4,34.8,27.5,38.1,32.0,26.8,100,89,79,29.41,29.26,16,7,16,0.00
2013-1-6,42.8,28.7,20.7,37.9,26.3,19.9,100,91,79,29.56,29.35,13,3,13,0.00
2013-1-7,50.7,35.0,21.9,42.2,31.3,21.0,97,87,73,29.50,29.23,16,7,16,0.00
2013-1-8,54.0,41.8,30.2,45.0,36.1,26.2,91,80,67,29.38,29.21,18,7,18,0.00
2013-1-9,40.3,36.6,34.7,36.6,35.2,33.2,100,95,85,29.44,29.38,7,1,7,0.00
2013-1-11,61.2,57.8,48.7,50.0,46.0,42.9,100,65,61,28.94,28.82,21,10,21,0.00
2013-1-12,59.0,36.2,21.6,46.2,30.9,20.8,100,82,61,29.29,28.94,13,5,13,0.00
2013-1-13,27.3,18.3,11.1,24.3,17.7,11.1,100,97,85,29.56,29.26,11,4,11,0.00
2013-1-14,33.4,15.2,7.7,29.4,14.5,7.7,100,97,85,29.74,29.59,6,1,6,0.00
2013-1-16,43.5,34.8,30.7,39.1,30.3,26.8,91,83,79,29.41,29.29,11,2,11,0.00
2013-1-17,48.2,34.9,28.6,41.5,32.2,25.5,100,90,73,29.74,29.38,11,3,11,0.00
2013-1-18,55.6,41.8,28.9,45.0,35.8,25.0,97,79,67,29.68,29.29,28,10,28,0.00
2013-1-19,62.6,47.9,40.3,48.8,41.0,36.1,85,78,55,29.50,29.23,19,7,19,0.00
2013-1-20,41.0,28.6,21.0,36.7,25.7,20.3,97,89,79,29.65,29.50,14,4,14,0.00
2013-1-21,26.4,18.4,11.5,24.1,17.8,11.5,100,97,91,29.71,29.65,14,3,14,0.00
2013-1-22,32.2,20.3,11.8,28.2,19.1,11.8,100,95,85,29.71,29.56,9,3,9,0.00
2013-1-23,52.9,28.9,11.1,44.1,25.8,11.1,100,89,73,29.71,29.47,10,2,10,0.00
2013-1-24,24.8,16.4,10.0,22.5,16.0,10.0,100,98,91,29.83,29.71,15,6,15,0.00
2013-1-26,57.0,46.4,34.2,46.0,39.9,28.3,91,79,67,29.65,29.44,11,3,11,0.00
2013-1-27,62.1,50.3,37.6,53.2,43.0,35.1,100,78,61,29.47,29.15,27,9,27,0.00
2013-1-28,74.1,64.7,56.5,59.9,52.5,46.8,100,68,43,29.23,29.12,26,8,26,0.00
2013-1-29,67.1,64.9,36.5,55.4,48.7,36.5,100,56,49,29.12,28.91,18,11,18,0.00
2013-1-30,36.9,27.9,22.1,36.9,26.1,21.0,100,93,85,29.41,28.88,21,7,21,0.00
2013-1-31,27.3,18.3,7.2,24.3,17.6,7.2,100,97,85,29.91,29.38,23,5,23,0.00